sensor_id;sensor_type;location;lat;lon;timestamp;pressure;altitude;pressure_sealevel;temperature;humidity
40592;BME280;26301;42.832;23.918;2024-01-16T00:01:26;91492.53;;;6.58;73.20
40592;BME280;26301;42.832;23.918;2024-01-16T00:03:51;91474.28;;;6.45;73.22
40592;BME280;26301;42.832;23.918;2024-01-16T00:06:17;91505.88;;;6.60;73.61
40592;BME280;26301;42.832;23.918;2024-01-16T00:08:42;91505.81;;;6.45;73.92
40592;BME280;26301;42.832;23.918;2024-01-16T00:11:08;91475.69;;;6.25;73.71
40592;BME280;26301;42.832;23.918;2024-01-16T00:13:33;91488.03;;;6.28;73.43
40592;BME280;26301;42.832;23.918;2024-01-16T00:15:59;91516.06;;;6.45;72.91
40592;BME280;26301;42.832;23.918;2024-01-16T00:18:26;91517.31;;;6.37;73.09
40592;BME280;26301;42.832;23.918;2024-01-16T00:20:52;91529.88;;;6.39;73.67
40592;BME280;26301;42.832;23.918;2024-01-16T00:23:17;91513.75;;;6.38;73.05
40592;BME280;26301;42.832;23.918;2024-01-16T00:25:42;91528.34;;;6.38;73.66
40592;BME280;26301;42.832;23.918;2024-01-16T00:28:08;91515.22;;;6.34;73.82
40592;BME280;26301;42.832;23.918;2024-01-16T00:30:33;91537.34;;;6.46;74.17
40592;BME280;26301;42.832;23.918;2024-01-16T00:32:59;91509.25;;;6.18;73.92
40592;BME280;26301;42.832;23.918;2024-01-16T00:35:25;91556.56;;;6.43;74.14
40592;BME280;26301;42.832;23.918;2024-01-16T00:37:50;91545.81;;;6.41;74.43
40592;BME280;26301;42.832;23.918;2024-01-16T00:40:16;91530.56;;;6.24;73.96
40592;BME280;26301;42.832;23.918;2024-01-16T00:42:41;91529.53;;;6.20;74.58
40592;BME280;26301;42.832;23.918;2024-01-16T00:45:07;91523.13;;;6.23;73.89
40592;BME280;26301;42.832;23.918;2024-01-16T00:47:32;91543.72;;;6.33;74.31
40592;BME280;26301;42.832;23.918;2024-01-16T00:49:58;91566.34;;;6.46;74.14
40592;BME280;26301;42.832;23.918;2024-01-16T00:52:26;91534.16;;;6.23;74.25
40592;BME280;26301;42.832;23.918;2024-01-16T00:54:51;91543.16;;;6.31;74.41
40592;BME280;26301;42.832;23.918;2024-01-16T00:57:17;91536.00;;;6.33;74.30
40592;BME280;26301;42.832;23.918;2024-01-16T00:59:45;91564.84;;;6.50;75.03
40592;BME280;26301;42.832;23.918;2024-01-16T01:02:10;91532.31;;;6.18;74.42
40592;BME280;26301;42.832;23.918;2024-01-16T01:04:37;91558.09;;;6.39;74.66
40592;BME280;26301;42.832;23.918;2024-01-16T01:07:03;91566.81;;;6.38;74.58
40592;BME280;26301;42.832;23.918;2024-01-16T01:09:28;91524.00;;;6.01;75.48
40592;BME280;26301;42.832;23.918;2024-01-16T01:11:54;91537.94;;;6.15;75.45
40592;BME280;26301;42.832;23.918;2024-01-16T01:14:19;91579.84;;;6.31;75.81
40592;BME280;26301;42.832;23.918;2024-01-16T01:16:45;91585.81;;;6.42;75.82
40592;BME280;26301;42.832;23.918;2024-01-16T01:19:10;91580.66;;;6.37;75.58
40592;BME280;26301;42.832;23.918;2024-01-16T01:21:36;91587.94;;;6.50;75.01
40592;BME280;26301;42.832;23.918;2024-01-16T01:24:01;91578.84;;;6.37;75.93
40592;BME280;26301;42.832;23.918;2024-01-16T01:26:27;91590.69;;;6.44;75.54
40592;BME280;26301;42.832;23.918;2024-01-16T01:28:52;91545.91;;;6.14;76.21
40592;BME280;26301;42.832;23.918;2024-01-16T01:31:18;91560.78;;;6.17;76.34
40592;BME280;26301;42.832;23.918;2024-01-16T01:33:43;91558.94;;;6.12;77.42
40592;BME280;26301;42.832;23.918;2024-01-16T01:36:09;91573.84;;;6.15;77.96
40592;BME280;26301;42.832;23.918;2024-01-16T01:38:35;91577.09;;;6.38;77.30
40592;BME280;26301;42.832;23.918;2024-01-16T01:41:00;91565.47;;;6.30;77.45
40592;BME280;26301;42.832;23.918;2024-01-16T01:43:26;91551.78;;;6.14;77.48
40592;BME280;26301;42.832;23.918;2024-01-16T01:46:13;91565.97;;;6.27;77.76
40592;BME280;26301;42.832;23.918;2024-01-16T01:48:41;91560.50;;;6.13;77.11
40592;BME280;26301;42.832;23.918;2024-01-16T01:51:08;91591.16;;;6.35;77.02
40592;BME280;26301;42.832;23.918;2024-01-16T01:53:34;91553.50;;;6.04;76.93
40592;BME280;26301;42.832;23.918;2024-01-16T01:56:03;91605.19;;;6.28;76.97
40592;BME280;26301;42.832;23.918;2024-01-16T01:58:32;91609.59;;;6.32;77.90
40592;BME280;26301;42.832;23.918;2024-01-16T02:00:59;91612.50;;;6.41;77.22
40592;BME280;26301;42.832;23.918;2024-01-16T02:03:27;91599.63;;;6.36;76.73
40592;BME280;26301;42.832;23.918;2024-01-16T02:05:53;91584.19;;;6.31;77.23
40592;BME280;26301;42.832;23.918;2024-01-16T02:08:19;91566.28;;;6.36;76.58
40592;BME280;26301;42.832;23.918;2024-01-16T02:10:47;91576.28;;;6.37;76.76
40592;BME280;26301;42.832;23.918;2024-01-16T02:13:14;91588.34;;;6.37;76.54
40592;BME280;26301;42.832;23.918;2024-01-16T02:15:40;91588.59;;;6.35;76.67
40592;BME280;26301;42.832;23.918;2024-01-16T02:18:07;91582.94;;;6.33;76.63
40592;BME280;26301;42.832;23.918;2024-01-16T02:20:32;91635.19;;;6.59;77.16
40592;BME280;26301;42.832;23.918;2024-01-16T02:23:00;91641.00;;;6.50;77.29
40592;BME280;26301;42.832;23.918;2024-01-16T02:25:29;91603.44;;;6.33;76.66
40592;BME280;26301;42.832;23.918;2024-01-16T02:27:54;91612.34;;;6.26;76.40
40592;BME280;26301;42.832;23.918;2024-01-16T02:30:20;91670.06;;;6.60;77.01
40592;BME280;26301;42.832;23.918;2024-01-16T02:32:45;91649.59;;;6.33;76.80
40592;BME280;26301;42.832;23.918;2024-01-16T02:35:11;91680.81;;;6.57;76.68
40592;BME280;26301;42.832;23.918;2024-01-16T02:37:36;91662.19;;;6.35;77.34
40592;BME280;26301;42.832;23.918;2024-01-16T02:40:03;91694.78;;;6.39;77.57
40592;BME280;26301;42.832;23.918;2024-01-16T02:42:32;91714.78;;;6.37;77.86
40592;BME280;26301;42.832;23.918;2024-01-16T02:44:57;91721.22;;;6.40;77.40
40592;BME280;26301;42.832;23.918;2024-01-16T02:47:23;91701.81;;;6.22;77.79
40592;BME280;26301;42.832;23.918;2024-01-16T02:49:48;91746.38;;;6.43;78.81
40592;BME280;26301;42.832;23.918;2024-01-16T02:52:14;91762.78;;;6.42;78.61
40592;BME280;26301;42.832;23.918;2024-01-16T02:54:40;91767.22;;;6.25;78.95
40592;BME280;26301;42.832;23.918;2024-01-16T02:57:05;91772.72;;;5.89;79.73
40592;BME280;26301;42.832;23.918;2024-01-16T02:59:31;91803.66;;;5.83;81.76
40592;BME280;26301;42.832;23.918;2024-01-16T03:01:56;91806.19;;;5.78;82.76
40592;BME280;26301;42.832;23.918;2024-01-16T03:04:22;91814.13;;;5.59;83.26
40592;BME280;26301;42.832;23.918;2024-01-16T03:06:47;91816.69;;;5.59;82.97
40592;BME280;26301;42.832;23.918;2024-01-16T03:09:13;91820.53;;;5.40;84.02
40592;BME280;26301;42.832;23.918;2024-01-16T03:11:38;91800.00;;;5.18;84.19
40592;BME280;26301;42.832;23.918;2024-01-16T03:14:05;91820.94;;;4.98;83.44
40592;BME280;26301;42.832;23.918;2024-01-16T03:16:31;91856.16;;;4.91;84.24
40592;BME280;26301;42.832;23.918;2024-01-16T03:18:57;91805.16;;;4.39;86.16
40592;BME280;26301;42.832;23.918;2024-01-16T03:21:23;91840.28;;;4.60;85.96
40592;BME280;26301;42.832;23.918;2024-01-16T03:23:49;91837.50;;;4.62;85.96
40592;BME280;26301;42.832;23.918;2024-01-16T03:26:14;91867.22;;;4.79;86.09
40592;BME280;26301;42.832;23.918;2024-01-16T03:28:40;91898.41;;;4.93;86.63
40592;BME280;26301;42.832;23.918;2024-01-16T03:31:06;91909.78;;;4.86;83.24
40592;BME280;26301;42.832;23.918;2024-01-16T03:33:31;91924.69;;;4.60;81.91
40592;BME280;26301;42.832;23.918;2024-01-16T03:35:57;91923.44;;;4.34;83.08
40592;BME280;26301;42.832;23.918;2024-01-16T03:38:23;91944.78;;;4.28;83.68
40592;BME280;26301;42.832;23.918;2024-01-16T03:40:48;91957.56;;;4.28;84.57
40592;BME280;26301;42.832;23.918;2024-01-16T03:43:13;91924.97;;;3.83;84.57
40592;BME280;26301;42.832;23.918;2024-01-16T03:45:39;91945.16;;;3.61;85.77
40592;BME280;26301;42.832;23.918;2024-01-16T03:48:05;91990.34;;;3.72;86.90
40592;BME280;26301;42.832;23.918;2024-01-16T03:50:30;91963.22;;;3.36;87.35
40592;BME280;26301;42.832;23.918;2024-01-16T03:52:56;91975.13;;;3.00;89.30
40592;BME280;26301;42.832;23.918;2024-01-16T03:55:21;91984.66;;;2.93;89.24
40592;BME280;26301;42.832;23.918;2024-01-16T03:57:47;91987.41;;;2.91;89.75
40592;BME280;26301;42.832;23.918;2024-01-16T04:00:12;91989.16;;;2.61;91.11
40592;BME280;26301;42.832;23.918;2024-01-16T04:02:39;92002.00;;;2.54;91.25
40592;BME280;26301;42.832;23.918;2024-01-16T04:05:04;91975.75;;;2.35;91.64
40592;BME280;26301;42.832;23.918;2024-01-16T04:07:31;91998.59;;;2.42;91.94
40592;BME280;26301;42.832;23.918;2024-01-16T04:09:56;92008.50;;;2.13;93.60
40592;BME280;26301;42.832;23.918;2024-01-16T04:12:21;92015.44;;;2.06;93.90
40592;BME280;26301;42.832;23.918;2024-01-16T04:14:47;92046.00;;;2.06;94.32
40592;BME280;26301;42.832;23.918;2024-01-16T04:17:12;92039.88;;;1.89;94.88
40592;BME280;26301;42.832;23.918;2024-01-16T04:19:38;92070.69;;;2.05;95.13
40592;BME280;26301;42.832;23.918;2024-01-16T04:22:04;92065.56;;;1.87;95.67
40592;BME280;26301;42.832;23.918;2024-01-16T04:24:30;92069.22;;;1.91;95.09
40592;BME280;26301;42.832;23.918;2024-01-16T04:26:56;92093.44;;;2.00;94.82
40592;BME280;26301;42.832;23.918;2024-01-16T04:29:22;92090.19;;;1.93;94.66
40592;BME280;26301;42.832;23.918;2024-01-16T04:31:47;92132.34;;;2.14;95.22
40592;BME280;26301;42.832;23.918;2024-01-16T04:34:13;92101.34;;;1.92;95.01
40592;BME280;26301;42.832;23.918;2024-01-16T04:36:38;92153.28;;;2.16;94.86
40592;BME280;26301;42.832;23.918;2024-01-16T04:39:04;92140.00;;;2.08;95.01
40592;BME280;26301;42.832;23.918;2024-01-16T04:41:29;92142.00;;;2.05;95.28
40592;BME280;26301;42.832;23.918;2024-01-16T04:43:55;92116.47;;;1.87;94.63
40592;BME280;26301;42.832;23.918;2024-01-16T04:46:20;92144.19;;;2.02;94.73
40592;BME280;26301;42.832;23.918;2024-01-16T04:48:46;92134.84;;;1.96;94.70
40592;BME280;26301;42.832;23.918;2024-01-16T04:51:11;92150.84;;;2.03;95.01
40592;BME280;26301;42.832;23.918;2024-01-16T04:53:37;92157.94;;;1.94;95.51
40592;BME280;26301;42.832;23.918;2024-01-16T04:56:02;92117.97;;;1.70;95.33
40592;BME280;26301;42.832;23.918;2024-01-16T04:58:28;92165.13;;;2.04;94.70
40592;BME280;26301;42.832;23.918;2024-01-16T05:00:53;92176.47;;;2.08;94.07
40592;BME280;26301;42.832;23.918;2024-01-16T05:03:19;92162.69;;;1.91;94.37
40592;BME280;26301;42.832;23.918;2024-01-16T05:05:45;92172.41;;;2.00;94.00
40592;BME280;26301;42.832;23.918;2024-01-16T05:08:10;92141.03;;;1.75;93.84
40592;BME280;26301;42.832;23.918;2024-01-16T05:10:36;92182.81;;;1.99;94.43
40592;BME280;26301;42.832;23.918;2024-01-16T05:13:01;92146.34;;;1.73;95.03
40592;BME280;26301;42.832;23.918;2024-01-16T05:15:27;92179.50;;;1.92;94.56
40592;BME280;26301;42.832;23.918;2024-01-16T05:17:52;92185.72;;;2.02;94.53
40592;BME280;26301;42.832;23.918;2024-01-16T05:20:19;92184.78;;;1.97;94.22
40592;BME280;26301;42.832;23.918;2024-01-16T05:22:44;92196.94;;;1.95;94.29
40592;BME280;26301;42.832;23.918;2024-01-16T05:25:10;92196.59;;;1.85;94.62
40592;BME280;26301;42.832;23.918;2024-01-16T05:27:35;92220.38;;;2.03;94.03
40592;BME280;26301;42.832;23.918;2024-01-16T05:30:01;92202.72;;;1.77;94.36
40592;BME280;26301;42.832;23.918;2024-01-16T05:32:27;92250.19;;;2.03;94.38
40592;BME280;26301;42.832;23.918;2024-01-16T05:34:52;92253.31;;;2.05;94.08
40592;BME280;26301;42.832;23.918;2024-01-16T05:37:19;92216.03;;;1.79;94.21
40592;BME280;26301;42.832;23.918;2024-01-16T05:39:44;92231.31;;;1.79;95.30
40592;BME280;26301;42.832;23.918;2024-01-16T05:42:11;92234.66;;;1.73;95.71
40592;BME280;26301;42.832;23.918;2024-01-16T05:44:37;92202.97;;;1.62;95.20
40592;BME280;26301;42.832;23.918;2024-01-16T05:47:04;92252.25;;;1.81;95.42
40592;BME280;26301;42.832;23.918;2024-01-16T05:49:29;92213.56;;;1.59;95.41
40592;BME280;26301;42.832;23.918;2024-01-16T05:51:55;92231.94;;;1.68;95.29
40592;BME280;26301;42.832;23.918;2024-01-16T05:54:20;92234.19;;;1.51;96.00
40592;BME280;26301;42.832;23.918;2024-01-16T05:56:46;92226.19;;;1.34;96.90
40592;BME280;26301;42.832;23.918;2024-01-16T05:59:11;92276.63;;;1.50;97.17
40592;BME280;26301;42.832;23.918;2024-01-16T06:01:37;92285.06;;;1.57;97.13
40592;BME280;26301;42.832;23.918;2024-01-16T06:04:03;92249.31;;;1.32;96.88
40592;BME280;26301;42.832;23.918;2024-01-16T06:06:29;92302.66;;;1.59;96.83
40592;BME280;26301;42.832;23.918;2024-01-16T06:08:54;92242.28;;;1.21;96.39
40592;BME280;26301;42.832;23.918;2024-01-16T06:11:29;92317.16;;;1.58;96.68
40592;BME280;26301;42.832;23.918;2024-01-16T06:13:55;92322.81;;;1.67;95.94
40592;BME280;26301;42.832;23.918;2024-01-16T06:16:20;92328.13;;;1.52;97.53
40592;BME280;26301;42.832;23.918;2024-01-16T06:18:46;92330.13;;;1.37;98.27
40592;BME280;26301;42.832;23.918;2024-01-16T06:21:11;92344.00;;;1.54;98.18
40592;BME280;26301;42.832;23.918;2024-01-16T06:23:37;92338.91;;;1.41;98.94
40592;BME280;26301;42.832;23.918;2024-01-16T06:26:03;92353.81;;;1.37;99.66
40592;BME280;26301;42.832;23.918;2024-01-16T06:28:28;92363.41;;;1.42;100.00
40592;BME280;26301;42.832;23.918;2024-01-16T06:30:54;92327.44;;;1.12;100.00
40592;BME280;26301;42.832;23.918;2024-01-16T06:33:19;92339.53;;;1.17;100.00
40592;BME280;26301;42.832;23.918;2024-01-16T06:35:45;92382.56;;;1.38;100.00
40592;BME280;26301;42.832;23.918;2024-01-16T06:38:10;92359.31;;;1.21;100.00
40592;BME280;26301;42.832;23.918;2024-01-16T06:40:35;92384.75;;;1.48;98.92
40592;BME280;26301;42.832;23.918;2024-01-16T06:43:01;92393.72;;;1.44;99.09
40592;BME280;26301;42.832;23.918;2024-01-16T06:45:26;92393.34;;;1.40;99.01
40592;BME280;26301;42.832;23.918;2024-01-16T06:47:52;92412.72;;;1.41;99.16
40592;BME280;26301;42.832;23.918;2024-01-16T06:50:17;92413.53;;;1.42;99.45
40592;BME280;26301;42.832;23.918;2024-01-16T06:52:43;92425.84;;;1.51;98.99
40592;BME280;26301;42.832;23.918;2024-01-16T06:55:08;92433.28;;;1.59;99.52
40592;BME280;26301;42.832;23.918;2024-01-16T06:57:34;92383.97;;;1.27;99.23
40592;BME280;26301;42.832;23.918;2024-01-16T06:59:59;92401.19;;;1.45;99.33
40592;BME280;26301;42.832;23.918;2024-01-16T07:02:24;92410.59;;;1.45;99.17
40592;BME280;26301;42.832;23.918;2024-01-16T07:04:51;92435.44;;;1.63;98.97
40592;BME280;26301;42.832;23.918;2024-01-16T07:07:16;92406.66;;;1.42;98.59
40592;BME280;26301;42.832;23.918;2024-01-16T07:09:43;92436.19;;;1.56;98.70
40592;BME280;26301;42.832;23.918;2024-01-16T07:12:08;92460.28;;;1.74;98.37
40592;BME280;26301;42.832;23.918;2024-01-16T07:14:33;92471.44;;;1.66;98.00
40592;BME280;26301;42.832;23.918;2024-01-16T07:16:59;92435.63;;;1.41;98.08
40592;BME280;26301;42.832;23.918;2024-01-16T07:19:25;92445.81;;;1.48;98.31
40592;BME280;26301;42.832;23.918;2024-01-16T07:21:50;92450.91;;;1.54;98.53
40592;BME280;26301;42.832;23.918;2024-01-16T07:24:16;92426.25;;;1.42;97.90
40592;BME280;26301;42.832;23.918;2024-01-16T07:26:41;92458.72;;;1.73;97.55
40592;BME280;26301;42.832;23.918;2024-01-16T07:29:07;92439.13;;;1.53;97.15
40592;BME280;26301;42.832;23.918;2024-01-16T07:31:32;92442.66;;;1.66;96.62
40592;BME280;26301;42.832;23.918;2024-01-16T07:33:58;92477.50;;;1.85;95.59
40592;BME280;26301;42.832;23.918;2024-01-16T07:36:23;92502.56;;;1.88;95.43
40592;BME280;26301;42.832;23.918;2024-01-16T07:38:48;92521.38;;;1.94;95.45
40592;BME280;26301;42.832;23.918;2024-01-16T07:41:14;92514.34;;;1.76;95.27
40592;BME280;26301;42.832;23.918;2024-01-16T07:43:39;92539.78;;;1.76;96.24
40592;BME280;26301;42.832;23.918;2024-01-16T07:46:05;92549.19;;;1.82;96.58
40592;BME280;26301;42.832;23.918;2024-01-16T07:48:30;92552.34;;;1.91;96.00
40592;BME280;26301;42.832;23.918;2024-01-16T07:50:56;92549.56;;;1.92;95.51
40592;BME280;26301;42.832;23.918;2024-01-16T07:53:21;92538.63;;;1.85;95.19
40592;BME280;26301;42.832;23.918;2024-01-16T07:55:47;92558.41;;;1.96;94.25
40592;BME280;26301;42.832;23.918;2024-01-16T07:58:13;92556.03;;;1.95;94.23
40592;BME280;26301;42.832;23.918;2024-01-16T08:00:39;92563.69;;;1.95;93.97
40592;BME280;26301;42.832;23.918;2024-01-16T08:03:07;92549.97;;;1.89;94.49
40592;BME280;26301;42.832;23.918;2024-01-16T08:05:33;92559.00;;;1.85;91.72
40592;BME280;26301;42.832;23.918;2024-01-16T08:07:59;92582.13;;;1.97;85.50
40592;BME280;26301;42.832;23.918;2024-01-16T08:10:24;92562.31;;;1.92;85.44
40592;BME280;26301;42.832;23.918;2024-01-16T08:12:50;92539.97;;;1.74;87.96
40592;BME280;26301;42.832;23.918;2024-01-16T08:15:15;92561.34;;;1.87;85.65
40592;BME280;26301;42.832;23.918;2024-01-16T08:17:41;92516.47;;;1.52;82.62
40592;BME280;26301;42.832;23.918;2024-01-16T08:20:07;92561.34;;;1.67;84.13
40592;BME280;26301;42.832;23.918;2024-01-16T08:22:36;92615.22;;;2.03;82.49
40592;BME280;26301;42.832;23.918;2024-01-16T08:25:01;92604.44;;;1.95;79.83
40592;BME280;26301;42.832;23.918;2024-01-16T08:27:26;92587.41;;;1.69;80.08
40592;BME280;26301;42.832;23.918;2024-01-16T08:29:53;92631.50;;;2.02;79.33
40592;BME280;26301;42.832;23.918;2024-01-16T08:32:19;92637.97;;;2.05;77.35
40592;BME280;26301;42.832;23.918;2024-01-16T08:34:44;92644.06;;;2.11;71.95
40592;BME280;26301;42.832;23.918;2024-01-16T08:37:10;92607.38;;;1.78;74.24
40592;BME280;26301;42.832;23.918;2024-01-16T08:39:35;92631.88;;;1.99;76.77
40592;BME280;26301;42.832;23.918;2024-01-16T08:42:01;92655.03;;;2.18;68.64
40592;BME280;26301;42.832;23.918;2024-01-16T08:44:29;92653.84;;;2.20;70.24
40592;BME280;26301;42.832;23.918;2024-01-16T08:46:55;92626.59;;;2.01;72.69
40592;BME280;26301;42.832;23.918;2024-01-16T08:49:20;92601.91;;;1.81;70.35
40592;BME280;26301;42.832;23.918;2024-01-16T08:51:46;92625.97;;;1.92;73.57
40592;BME280;26301;42.832;23.918;2024-01-16T08:54:12;92653.25;;;2.12;73.92
40592;BME280;26301;42.832;23.918;2024-01-16T08:56:37;92630.13;;;1.87;73.00
40592;BME280;26301;42.832;23.918;2024-01-16T08:59:03;92625.59;;;1.89;70.63
40592;BME280;26301;42.832;23.918;2024-01-16T09:01:28;92669.13;;;2.14;71.63
40592;BME280;26301;42.832;23.918;2024-01-16T09:03:54;92639.69;;;1.85;69.14
40592;BME280;26301;42.832;23.918;2024-01-16T09:06:19;92665.97;;;1.98;68.16
40592;BME280;26301;42.832;23.918;2024-01-16T09:08:45;92669.28;;;1.92;71.01
40592;BME280;26301;42.832;23.918;2024-01-16T09:11:11;92647.91;;;1.73;67.94
40592;BME280;26301;42.832;23.918;2024-01-16T09:13:37;92653.22;;;1.72;68.23
40592;BME280;26301;42.832;23.918;2024-01-16T09:16:04;92646.19;;;1.87;67.05
40592;BME280;26301;42.832;23.918;2024-01-16T09:18:30;92690.31;;;2.21;64.71
40592;BME280;26301;42.832;23.918;2024-01-16T09:20:55;92644.03;;;1.84;68.35
40592;BME280;26301;42.832;23.918;2024-01-16T09:23:21;92658.13;;;2.06;66.75
40592;BME280;26301;42.832;23.918;2024-01-16T09:25:47;92676.97;;;2.12;66.81
40592;BME280;26301;42.832;23.918;2024-01-16T09:28:12;92660.09;;;2.04;66.96
40592;BME280;26301;42.832;23.918;2024-01-16T09:30:38;92650.88;;;1.97;67.72
40592;BME280;26301;42.832;23.918;2024-01-16T09:33:04;92696.56;;;2.25;69.46
40592;BME280;26301;42.832;23.918;2024-01-16T09:35:32;92681.66;;;2.09;69.22
40592;BME280;26301;42.832;23.918;2024-01-16T09:37:58;92695.97;;;2.16;68.14
40592;BME280;26301;42.832;23.918;2024-01-16T09:40:25;92646.94;;;1.81;66.71
40592;BME280;26301;42.832;23.918;2024-01-16T09:42:50;92665.19;;;1.98;67.75
40592;BME280;26301;42.832;23.918;2024-01-16T09:45:19;92700.50;;;2.27;66.40
40592;BME280;26301;42.832;23.918;2024-01-16T09:47:48;92668.75;;;2.23;63.56
40592;BME280;26301;42.832;23.918;2024-01-16T09:50:15;92662.66;;;2.31;63.83
40592;BME280;26301;42.832;23.918;2024-01-16T09:52:44;92682.25;;;2.57;63.44
40592;BME280;26301;42.832;23.918;2024-01-16T09:55:10;92695.41;;;2.54;63.41
40592;BME280;26301;42.832;23.918;2024-01-16T09:57:41;92652.28;;;2.39;63.15
40592;BME280;26301;42.832;23.918;2024-01-16T10:00:11;92699.72;;;2.60;62.74
40592;BME280;26301;42.832;23.918;2024-01-16T10:02:41;92713.66;;;2.71;58.48
40592;BME280;26301;42.832;23.918;2024-01-16T10:05:13;92709.53;;;2.63;58.09
40592;BME280;26301;42.832;23.918;2024-01-16T10:07:40;92676.94;;;2.59;55.71
40592;BME280;26301;42.832;23.918;2024-01-16T10:10:06;92680.50;;;2.71;58.57
40592;BME280;26301;42.832;23.918;2024-01-16T10:12:32;92685.59;;;2.78;59.58
40592;BME280;26301;42.832;23.918;2024-01-16T10:14:59;92682.44;;;2.56;60.87
40592;BME280;26301;42.832;23.918;2024-01-16T10:17:45;92706.00;;;2.71;57.33
40592;BME280;26301;42.832;23.918;2024-01-16T10:20:11;92690.91;;;2.63;57.66
40592;BME280;26301;42.832;23.918;2024-01-16T10:22:39;92670.31;;;2.44;57.28
40592;BME280;26301;42.832;23.918;2024-01-16T10:25:12;92690.50;;;2.52;58.16
40592;BME280;26301;42.832;23.918;2024-01-16T10:27:42;92700.28;;;2.56;57.02
40592;BME280;26301;42.832;23.918;2024-01-16T10:30:08;92666.38;;;2.48;57.71
40592;BME280;26301;42.832;23.918;2024-01-16T10:32:41;92667.16;;;2.62;56.51
40592;BME280;26301;42.832;23.918;2024-01-16T10:35:12;92645.59;;;2.51;56.89
40592;BME280;26301;42.832;23.918;2024-01-16T10:37:42;92653.63;;;2.62;58.37
40592;BME280;26301;42.832;23.918;2024-01-16T10:40:09;92658.13;;;2.60;56.06
40592;BME280;26301;42.832;23.918;2024-01-16T10:42:34;92695.00;;;2.84;56.42
40592;BME280;26301;42.832;23.918;2024-01-16T10:45:00;92709.69;;;2.88;55.95
40592;BME280;26301;42.832;23.918;2024-01-16T10:47:25;92710.66;;;2.94;56.70
40592;BME280;26301;42.832;23.918;2024-01-16T10:49:51;92689.91;;;2.84;56.58
40592;BME280;26301;42.832;23.918;2024-01-16T10:52:17;92686.72;;;2.88;56.60
40592;BME280;26301;42.832;23.918;2024-01-16T10:54:43;92681.28;;;2.71;56.53
40592;BME280;26301;42.832;23.918;2024-01-16T10:57:13;92737.56;;;2.96;55.60
40592;BME280;26301;42.832;23.918;2024-01-16T11:02:14;92717.34;;;2.82;56.90
40592;BME280;26301;42.832;23.918;2024-01-16T11:04:42;92741.25;;;3.01;57.00
40592;BME280;26301;42.832;23.918;2024-01-16T11:07:08;92687.53;;;2.75;54.90
40592;BME280;26301;42.832;23.918;2024-01-16T11:09:34;92727.34;;;3.03;55.37
40592;BME280;26301;42.832;23.918;2024-01-16T11:12:00;92708.13;;;2.87;55.70
40592;BME280;26301;42.832;23.918;2024-01-16T11:14:28;92727.91;;;3.12;54.83
40592;BME280;26301;42.832;23.918;2024-01-16T11:16:56;92730.03;;;3.21;52.34
40592;BME280;26301;42.832;23.918;2024-01-16T11:19:23;92722.00;;;3.18;53.00
40592;BME280;26301;42.832;23.918;2024-01-16T11:21:50;92704.38;;;2.96;53.24
40592;BME280;26301;42.832;23.918;2024-01-16T11:24:16;92690.06;;;2.82;53.80
40592;BME280;26301;42.832;23.918;2024-01-16T11:26:42;92723.00;;;3.04;53.51
40592;BME280;26301;42.832;23.918;2024-01-16T11:31:57;92734.22;;;2.96;55.07
40592;BME280;26301;42.832;23.918;2024-01-16T11:37:08;92708.88;;;3.08;52.81
40592;BME280;26301;42.832;23.918;2024-01-16T11:39:34;92724.59;;;3.05;52.49
40592;BME280;26301;42.832;23.918;2024-01-16T11:42:01;92720.50;;;2.90;52.98
40592;BME280;26301;42.832;23.918;2024-01-16T11:44:49;92756.41;;;2.95;54.30
40592;BME280;26301;42.832;23.918;2024-01-16T11:47:23;92734.03;;;2.84;51.91
40592;BME280;26301;42.832;23.918;2024-01-16T11:50:09;92711.88;;;2.78;52.42
40592;BME280;26301;42.832;23.918;2024-01-16T11:55:28;92753.47;;;2.98;53.40
40592;BME280;26301;42.832;23.918;2024-01-16T11:58:21;92716.19;;;2.78;53.26
40592;BME280;26301;42.832;23.918;2024-01-16T12:00:52;92719.53;;;2.78;53.91
40592;BME280;26301;42.832;23.918;2024-01-16T12:03:21;92763.66;;;3.05;54.36
40592;BME280;26301;42.832;23.918;2024-01-16T12:05:59;92762.88;;;3.05;56.22
40592;BME280;26301;42.832;23.918;2024-01-16T12:08:25;92760.09;;;3.13;52.74
40592;BME280;26301;42.832;23.918;2024-01-16T12:10:51;92718.94;;;2.89;53.82
40592;BME280;26301;42.832;23.918;2024-01-16T12:13:16;92772.28;;;3.17;52.88
40592;BME280;26301;42.832;23.918;2024-01-16T12:15:42;92762.28;;;3.03;53.13
40592;BME280;26301;42.832;23.918;2024-01-16T12:18:08;92766.78;;;3.14;51.79
40592;BME280;26301;42.832;23.918;2024-01-16T12:20:35;92731.88;;;2.81;52.54
40592;BME280;26301;42.832;23.918;2024-01-16T12:23:03;92749.34;;;2.84;53.71
40592;BME280;26301;42.832;23.918;2024-01-16T12:25:30;92783.44;;;3.10;52.97
40592;BME280;26301;42.832;23.918;2024-01-16T12:28:09;92732.88;;;2.80;54.27
40592;BME280;26301;42.832;23.918;2024-01-16T12:30:39;92768.56;;;3.00;52.95
40592;BME280;26301;42.832;23.918;2024-01-16T12:33:11;92748.16;;;2.67;52.82
40592;BME280;26301;42.832;23.918;2024-01-16T12:35:39;92794.25;;;2.85;52.33
40592;BME280;26301;42.832;23.918;2024-01-16T12:38:06;92751.31;;;2.62;53.56
40592;BME280;26301;42.832;23.918;2024-01-16T12:40:50;92749.53;;;2.56;52.58
40592;BME280;26301;42.832;23.918;2024-01-16T12:43:20;92732.84;;;2.40;52.27
40592;BME280;26301;42.832;23.918;2024-01-16T12:45:45;92791.72;;;2.85;53.71
40592;BME280;26301;42.832;23.918;2024-01-16T12:48:11;92793.28;;;2.73;52.86
40592;BME280;26301;42.832;23.918;2024-01-16T12:50:37;92788.19;;;2.80;51.07
40592;BME280;26301;42.832;23.918;2024-01-16T12:55:32;92793.66;;;2.63;53.37
40592;BME280;26301;42.832;23.918;2024-01-16T12:58:20;92799.56;;;2.84;51.39
40592;BME280;26301;42.832;23.918;2024-01-16T13:00:47;92764.44;;;2.66;50.27
40592;BME280;26301;42.832;23.918;2024-01-16T13:03:25;92799.16;;;2.67;52.35
40592;BME280;26301;42.832;23.918;2024-01-16T13:05:57;92798.38;;;2.60;52.37
40592;BME280;26301;42.832;23.918;2024-01-16T13:08:23;92792.69;;;2.51;53.10
40592;BME280;26301;42.832;23.918;2024-01-16T13:11:05;92789.53;;;2.49;51.18